Time;durP1;ratioP1;P1;durP2;ratioP2;P2;SDS_P1;SDS_P2;PMS_P1;PMS_P2;Temp;Humidity;BMP_temperature;BMP_pressure;BME280_temperature;BME280_humidity;BME280_pressure;Samples;Min_cycle;Max_cycle;Signal;HPM_P1;HPM_P2
2023/07/19 00:02:08;;;;;;;11.60;10.80;;;16.30;1.00;;;;;;2614349;54;20259;-73
2023/07/19 00:07:56;;;;;;;13.80;12.57;;;16.30;1.00;;;;;;2615279;54;20386;-74
2023/07/19 00:13:43;;;;;;;11.77;11.10;;;16.30;1.00;;;;;;2614654;54;20125;-72
2023/07/19 00:19:31;;;;;;;10.40;9.80;;;16.00;1.00;;;;;;2613966;54;20153;-72
2023/07/19 00:25:19;;;;;;;11.87;11.07;;;15.80;1.00;;;;;;2613899;54;20126;-73
2023/07/19 00:35:12;;;;;;;11.97;11.27;;;15.40;1.00;;;;;;2615005;54;20362;-72
2023/07/19 00:41:00;;;;;;;10.70;10.00;;;15.40;1.00;;;;;;2614255;54;20363;-73
2023/07/19 00:46:48;;;;;;;11.43;10.63;;;15.50;1.00;;;;;;2614687;54;20127;-72
2023/07/19 00:52:36;;;;;;;11.77;10.97;;;15.50;1.00;;;;;;2614867;54;20398;-73
2023/07/19 00:58:24;;;;;;;12.20;11.20;;;15.30;1.00;;;;;;2615547;39;20763;-72
2023/07/19 01:04:12;;;;;;;11.77;10.97;;;15.40;1.00;;;;;;2613790;54;20123;-72
2023/07/19 01:10:00;;;;;;;10.93;10.20;;;15.10;1.00;;;;;;2614920;54;20412;-73
2023/07/19 01:15:47;;;;;;;11.23;10.43;;;14.80;1.00;;;;;;2614206;54;20662;-73
2023/07/19 01:21:35;;;;;;;10.60;9.90;;;14.90;1.00;;;;;;2614801;54;20168;-72
2023/07/19 01:27:23;;;;;;;10.47;9.77;;;14.80;1.00;;;;;;2614684;54;20157;-71
2023/07/19 01:30:45;;;;;;;10.07;9.40;;;14.90;1.00;;;;;;2614833;54;20419;-72
2023/07/19 01:33:10;;;;;;;10.43;9.70;;;14.70;1.00;;;;;;2614694;54;20151;-73
2023/07/19 01:38:58;;;;;;;11.07;9.23;;;14.90;1.00;;;;;;2614819;54;20734;-73
2023/07/19 01:44:46;;;;;;;10.90;10.00;;;14.90;1.00;;;;;;2613633;54;20270;-73
2023/07/19 01:50:34;;;;;;;9.50;8.90;;;14.60;1.00;;;;;;2613212;54;20122;-72
2023/07/19 01:56:22;;;;;;;11.20;10.40;;;14.60;1.00;;;;;;2614804;54;20150;-72
2023/07/19 01:59:25;;;;;;;9.43;8.73;;;14.80;1.00;;;;;;2613685;54;20420;-72
2023/07/19 02:01:52;;;;;;;10.10;9.37;;;14.80;1.00;;;;;;2614251;46;20174;-72
2023/07/19 02:07:40;;;;;;;9.70;9.00;;;14.90;1.00;;;;;;2614481;54;20423;-72
2023/07/19 02:13:27;;;;;;;10.10;9.40;;;14.80;1.00;;;;;;2614625;54;20765;-72
2023/07/19 02:19:16;;;;;;;10.13;8.73;;;14.70;1.00;;;;;;2615125;54;20168;-73
2023/07/19 02:25:05;;;;;;;10.50;9.70;;;14.50;1.00;;;;;;2614878;39;20798;-72
2023/07/19 02:37:36;;;;;;;9.53;8.73;;;14.40;1.00;;;;;;2614577;46;21186;-72
2023/07/19 02:43:24;;;;;;;8.93;8.27;;;14.40;1.00;;;;;;2613513;54;20147;-73
2023/07/19 02:49:12;;;;;;;10.37;9.40;;;14.60;1.00;;;;;;2613777;54;20251;-72
2023/07/19 02:54:59;;;;;;;9.93;9.30;;;14.60;1.00;;;;;;2614717;54;20155;-72
2023/07/19 03:00:47;;;;;;;9.47;8.80;;;15.00;1.00;;;;;;2613944;54;20125;-72
2023/07/19 03:06:35;;;;;;;9.77;9.00;;;14.80;1.00;;;;;;2612583;54;20158;-72
2023/07/19 03:12:22;;;;;;;10.00;9.40;;;14.60;1.00;;;;;;2614314;39;20591;-73
2023/07/19 03:18:10;;;;;;;9.20;8.53;;;14.20;1.00;;;;;;2613824;54;20125;-72
2023/07/19 03:23:58;;;;;;;9.03;8.33;;;14.20;1.00;;;;;;2612920;54;20138;-72
2023/07/19 03:29:45;;;;;;;10.30;9.47;;;14.20;1.00;;;;;;2613896;54;20130;-72
2023/07/19 03:35:33;;;;;;;9.10;8.40;;;14.10;1.00;;;;;;2613596;39;20526;-71
2023/07/19 03:41:21;;;;;;;8.83;8.03;;;14.10;1.00;;;;;;2613815;54;20126;-72
2023/07/19 03:47:08;;;;;;;9.80;9.13;;;14.20;1.00;;;;;;2613599;54;20261;-73
2023/07/19 03:52:56;;;;;;;10.10;9.27;;;14.40;1.00;;;;;;2613373;54;20704;-72
2023/07/19 03:58:48;;;;;;;10.97;8.97;;;14.60;1.00;;;;;;2613811;54;20131;-73
2023/07/19 04:04:36;;;;;;;10.67;9.77;;;14.70;1.00;;;;;;2613840;54;20965;-73
2023/07/19 04:10:24;;;;;;;10.50;9.70;;;14.90;1.00;;;;;;2613623;54;20153;-73
2023/07/19 04:16:11;;;;;;;9.97;9.37;;;15.10;1.00;;;;;;2612975;47;20728;-72
2023/07/19 04:21:59;;;;;;;11.60;10.53;;;15.40;1.00;;;;;;2615317;39;20524;-72
2023/07/19 04:27:47;;;;;;;10.10;9.40;;;15.70;1.00;;;;;;2614985;54;20134;-73
2023/07/19 04:30:46;;;;;;;11.37;10.60;;;15.90;1.00;;;;;;2614151;54;20404;-72
2023/07/19 04:33:13;;;;;;;10.80;9.77;;;15.90;1.00;;;;;;2614178;54;20446;-72
2023/07/19 04:39:01;;;;;;;9.87;9.27;;;16.30;1.00;;;;;;2614626;54;20499;-72
2023/07/19 04:44:50;;;;;;;10.83;9.97;;;16.50;1.00;;;;;;2613751;54;20138;-72
2023/07/19 04:50:37;;;;;;;12.20;11.17;;;16.70;1.00;;;;;;2613901;54;20383;-73
2023/07/19 04:56:26;;;;;;;11.77;10.93;;;16.90;1.00;;;;;;2614090;54;20179;-72
2023/07/19 05:02:14;;;;;;;13.60;11.80;;;17.00;1.00;;;;;;2613464;54;21222;-72
2023/07/19 05:08:04;;;;;;;11.90;11.00;;;17.30;1.00;;;;;;2614124;54;20151;-73
2023/07/19 05:13:52;;;;;;;12.23;11.37;;;17.50;1.00;;;;;;2615042;39;20771;-72
2023/07/19 05:19:40;;;;;;;13.30;12.10;;;17.80;1.00;;;;;;2614028;54;20466;-76
2023/07/19 05:25:29;;;;;;;12.00;11.07;;;17.80;1.00;;;;;;2612512;54;20494;-70
2023/07/19 05:41:42;;;;;;;12.97;11.67;;;17.90;1.00;;;;;;2611821;54;20418;-74
2023/07/19 05:47:29;;;;;;;13.43;12.37;;;17.90;1.00;;;;;;2613143;54;20150;-75
2023/07/19 05:53:17;;;;;;;13.07;12.17;;;17.90;1.00;;;;;;2612713;54;20242;-75
2023/07/19 05:59:04;;;;;;;12.50;11.57;;;18.10;1.00;;;;;;2610916;39;20888;-74
2023/07/19 06:04:51;;;;;;;12.30;11.50;;;18.20;1.00;;;;;;2608301;54;20161;-74
2023/07/19 06:10:38;;;;;;;15.00;11.90;;;18.10;1.00;;;;;;2612921;54;20246;-75
2023/07/19 06:16:26;;;;;;;12.90;11.70;;;18.00;1.00;;;;;;2613104;54;20399;-74
2023/07/19 06:19:04;;;;;;;12.27;11.47;;;18.20;1.00;;;;;;2612304;54;20433;-74
2023/07/19 06:21:31;;;;;;;11.83;10.93;;;18.10;1.00;;;;;;2612451;47;20162;-74
2023/07/19 06:27:21;;;;;;;14.60;13.50;;;18.20;1.00;;;;;;2612932;54;20405;-75
2023/07/19 06:30:46;;;;;;;13.83;12.30;;;18.30;1.00;;;;;;2611620;54;20426;-75
2023/07/19 06:33:12;;;;;;;12.60;11.33;;;18.50;1.00;;;;;;2613983;54;20439;-74
2023/07/19 06:38:59;;;;;;;12.47;11.57;;;18.60;1.00;;;;;;2613601;54;20649;-75
2023/07/19 06:44:47;;;;;;;12.80;11.70;;;18.80;1.00;;;;;;2613040;54;20162;-74
2023/07/19 06:50:35;;;;;;;13.90;12.60;;;18.80;1.00;;;;;;2612558;54;20411;-75
2023/07/19 06:56:23;;;;;;;12.23;11.23;;;18.70;1.00;;;;;;2611147;54;20134;-75
2023/07/19 07:02:11;;;;;;;12.33;11.43;;;18.60;1.00;;;;;;2612692;54;20130;-76
2023/07/19 07:07:59;;;;;;;12.03;11.23;;;18.70;1.00;;;;;;2612726;54;20134;-74
2023/07/19 07:13:47;;;;;;;13.00;11.83;;;18.90;1.00;;;;;;2612517;54;20154;-77
2023/07/19 07:19:34;;;;;;;13.50;11.60;;;19.20;1.00;;;;;;2611708;54;20677;-74
2023/07/19 07:25:22;;;;;;;15.43;11.70;;;19.10;1.00;;;;;;2613189;54;20154;-74
2023/07/19 07:35:16;;;;;;;13.50;12.30;;;19.70;1.00;;;;;;2613728;54;20479;-75
2023/07/19 07:41:11;;;;;;;14.30;13.17;;;20.20;1.00;;;;;;2612903;54;20399;-74
2023/07/19 07:46:58;;;;;;;15.20;13.53;;;20.20;1.00;;;;;;2613418;54;20428;-74
2023/07/19 07:52:46;;;;;;;13.23;12.23;;;20.30;1.00;;;;;;2613328;54;20592;-74
2023/07/19 07:58:34;;;;;;;19.33;14.10;;;20.30;1.00;;;;;;2614215;54;20134;-74
2023/07/19 08:04:21;;;;;;;16.27;13.00;;;20.30;1.00;;;;;;2614834;39;20544;-74
2023/07/19 08:10:09;;;;;;;15.17;13.57;;;21.00;1.00;;;;;;2613000;54;20565;-74
2023/07/19 08:15:57;;;;;;;13.90;12.73;;;21.10;1.00;;;;;;2613829;54;20145;-73
2023/07/19 08:21:45;;;;;;;14.50;13.13;;;21.50;1.00;;;;;;2614143;54;20239;-74
2023/07/19 08:27:33;;;;;;;14.70;13.40;;;22.20;1.00;;;;;;2613725;54;20123;-74
2023/07/19 08:30:48;;;;;;;14.67;13.30;;;22.80;1.00;;;;;;2614369;54;21061;-74
2023/07/19 08:33:14;;;;;;;15.10;13.37;;;21.90;1.00;;;;;;2613863;54;20515;-74
2023/07/19 08:39:02;;;;;;;16.00;14.40;;;23.10;1.00;;;;;;2613396;54;20130;-73
2023/07/19 08:44:50;;;;;;;15.23;14.00;;;23.00;1.00;;;;;;2613484;54;20399;-73
2023/07/19 08:50:40;;;;;;;14.47;13.30;;;22.50;1.00;;;;;;2613770;54;20127;-73
2023/07/19 08:56:31;;;;;;;13.83;12.87;;;23.40;1.00;;;;;;2614770;54;20395;-74
2023/07/19 09:02:18;;;;;;;16.10;14.80;;;22.30;1.00;;;;;;2613315;39;20803;-74
2023/07/19 09:08:10;;;;;;;15.80;14.23;;;21.90;1.00;;;;;;2613815;54;20176;-73
2023/07/19 09:13:58;;;;;;;15.53;14.00;;;22.30;1.00;;;;;;2614375;54;20474;-75
2023/07/19 09:19:47;;;;;;;14.40;13.30;;;22.00;1.00;;;;;;2614638;54;20477;-75
2023/07/19 09:35:43;;;;;;;13.27;12.33;;;22.00;1.00;;;;;;2614586;39;20861;-75
2023/07/19 09:41:32;;;;;;;14.13;12.70;;;22.30;1.00;;;;;;2614789;39;20221;-73
2023/07/19 09:47:22;;;;;;;13.97;13.10;;;23.40;1.00;;;;;;2614493;54;20453;-74
2023/07/19 09:53:12;;;;;;;14.50;13.40;;;23.60;1.00;;;;;;2614268;54;20930;-74
2023/07/19 09:59:01;;;;;;;15.13;14.07;;;23.10;1.00;;;;;;2614036;54;21121;-74
2023/07/19 10:04:50;;;;;;;14.40;13.40;;;24.30;1.00;;;;;;2613190;54;20970;-74
2023/07/19 10:10:40;;;;;;;14.70;13.50;;;25.00;1.00;;;;;;2610536;54;20398;-74
2023/07/19 10:16:35;;;;;;;14.90;13.80;;;25.70;1.00;;;;;;2612736;54;20411;-74
2023/07/19 10:29:07;;;;;;;16.70;15.20;;;25.80;1.00;;;;;;2610684;39;20787;-74
2023/07/19 10:34:56;;;;;;;15.90;14.60;;;26.20;1.00;;;;;;2611399;54;20202;-75
2023/07/19 10:46:58;;;;;;;15.47;13.90;;;26.20;1.00;;;;;;2613570;39;20728;-74
2023/07/19 10:52:46;;;;;;;15.17;13.80;;;25.00;1.00;;;;;;2613771;39;20525;-74
2023/07/19 10:58:34;;;;;;;14.93;14.03;;;25.10;1.00;;;;;;2613828;54;20218;-74
2023/07/19 11:04:22;;;;;;;15.43;14.13;;;25.50;1.00;;;;;;2611768;54;20252;-75
2023/07/19 11:10:10;;;;;;;15.03;13.67;;;26.20;1.00;;;;;;2613364;54;20965;-75
2023/07/19 11:15:58;;;;;;;13.50;12.37;;;23.90;1.00;;;;;;2613618;54;20473;-75
2023/07/19 11:21:46;;;;;;;12.73;11.83;;;24.30;1.00;;;;;;2613782;54;20425;-75
2023/07/19 11:27:34;;;;;;;13.30;12.40;;;23.90;1.00;;;;;;2614206;54;20182;-75
2023/07/19 11:30:49;;;;;;;14.63;13.30;;;23.50;1.00;;;;;;2612792;54;20432;-74
2023/07/19 11:33:17;;;;;;;14.43;13.10;;;23.70;1.00;;;;;;2613003;54;20479;-74
2023/07/19 11:39:05;;;;;;;13.20;12.30;;;24.00;1.00;;;;;;2613633;54;20519;-74
2023/07/19 11:44:52;;;;;;;13.57;12.57;;;25.30;1.00;;;;;;2613943;54;20784;-74
2023/07/19 11:50:40;;;;;;;13.57;12.47;;;25.70;1.00;;;;;;2611805;54;20155;-74
2023/07/19 11:56:29;;;;;;;13.80;13.00;;;25.80;1.00;;;;;;2614179;39;20512;-74
2023/07/19 12:02:16;;;;;;;13.50;12.60;;;26.60;1.00;;;;;;2612514;54;20440;-74
2023/07/19 12:08:05;;;;;;;12.90;12.10;;;26.90;1.00;;;;;;2613230;54;20158;-74
2023/07/19 12:13:56;;;;;;;13.23;12.43;;;27.70;1.00;;;;;;2611047;54;20407;-74
2023/07/19 12:19:44;;;;;;;14.17;12.97;;;27.00;1.00;;;;;;2611130;54;20417;-74
2023/07/19 12:25:32;;;;;;;13.47;12.67;;;25.70;1.00;;;;;;2611954;54;20133;-75
2023/07/19 12:35:23;;;;;;;14.10;12.90;;;24.80;1.00;;;;;;2611467;54;20500;-75
2023/07/19 12:41:10;;;;;;;14.13;13.30;;;25.70;1.00;;;;;;2613374;54;20383;-75
2023/07/19 12:46:58;;;;;;;16.13;14.87;;;25.10;1.00;;;;;;2615084;54;20152;-74
2023/07/19 12:52:46;;;;;;;13.07;12.23;;;25.40;1.00;;;;;;2614225;54;20671;-76
2023/07/19 12:58:34;;;;;;;14.00;13.30;;;25.10;1.00;;;;;;2613676;54;20238;-75
2023/07/19 13:04:23;;;;;;;13.80;13.00;;;25.50;1.00;;;;;;2613149;54;20135;-74
2023/07/19 13:10:13;;;;;;;14.03;13.23;;;26.30;1.00;;;;;;2612677;54;20489;-75
2023/07/19 13:16:01;;;;;;;13.80;12.60;;;26.50;1.00;;;;;;2613615;54;20419;-75
2023/07/19 13:21:49;;;;;;;13.37;12.60;;;26.30;1.00;;;;;;2613969;54;20420;-75
2023/07/19 13:27:36;;;;;;;12.43;11.63;;;26.10;1.00;;;;;;2614001;54;20678;-75
2023/07/19 13:30:49;;;;;;;12.90;12.20;;;27.00;1.00;;;;;;2613047;54;20558;-74
2023/07/19 13:33:15;;;;;;;13.47;12.60;;;26.30;1.00;;;;;;2614414;54;20212;-75
2023/07/19 13:39:03;;;;;;;12.40;11.53;;;26.80;1.00;;;;;;2613316;54;20158;-75
2023/07/19 13:44:51;;;;;;;13.10;12.50;;;26.30;1.00;;;;;;2613320;54;20126;-75
2023/07/19 13:50:39;;;;;;;12.20;11.60;;;27.00;1.00;;;;;;2613540;54;20444;-74
2023/07/19 13:56:27;;;;;;;13.37;12.57;;;26.10;1.00;;;;;;2612416;47;20377;-75
2023/07/19 14:02:14;;;;;;;13.70;12.90;;;25.20;1.00;;;;;;2613724;54;20167;-76
2023/07/19 14:08:02;;;;;;;13.60;12.50;;;25.00;1.00;;;;;;2613086;54;20165;-74
2023/07/19 14:13:49;;;;;;;13.27;12.67;;;24.70;1.00;;;;;;2611877;54;20169;-75
2023/07/19 14:19:37;;;;;;;14.30;13.20;;;24.40;1.00;;;;;;2610959;54;20136;-74
2023/07/19 14:25:25;;;;;;;13.23;12.53;;;24.00;1.00;;;;;;2613110;54;20151;-75
2023/07/19 14:35:18;;;;;;;13.33;12.33;;;23.90;1.00;;;;;;2614082;39;20889;-76
2023/07/19 14:41:06;;;;;;;12.53;11.77;;;24.20;1.00;;;;;;2612785;54;20957;-75
2023/07/19 14:46:56;;;;;;;13.40;12.50;;;23.50;1.00;;;;;;2612128;54;20184;-74
2023/07/19 14:49:52;;;;;;;12.83;12.23;;;23.60;1.00;;;;;;2611549;47;20456;-75
2023/07/19 14:52:18;;;;;;;13.40;12.67;;;23.50;1.00;;;;;;2610859;54;20406;-75
2023/07/19 14:58:06;;;;;;;13.60;12.73;;;24.00;1.00;;;;;;2611363;54;20417;-75
2023/07/19 15:03:57;;;;;;;13.13;12.23;;;24.00;1.00;;;;;;2614230;54;21660;-76
2023/07/19 15:09:44;;;;;;;13.07;12.20;;;23.50;1.00;;;;;;2611904;54;20399;-75
2023/07/19 15:15:32;;;;;;;14.53;13.40;;;24.30;1.00;;;;;;2612495;39;20610;-76
2023/07/19 15:21:20;;;;;;;13.00;11.97;;;23.70;1.00;;;;;;2611353;54;20179;-75
2023/07/19 15:27:08;;;;;;;12.57;11.63;;;23.10;1.00;;;;;;2610911;54;20130;-75
2023/07/19 15:32:55;;;;;;;13.23;12.43;;;22.50;1.00;;;;;;2612127;39;20547;-74
2023/07/19 15:38:46;;;;;;;13.70;12.90;;;22.20;1.00;;;;;;2611115;54;20151;-76
2023/07/19 15:44:34;;;;;;;13.50;12.60;;;22.20;1.00;;;;;;2611249;54;20399;-75
2023/07/19 15:50:22;;;;;;;11.70;10.83;;;20.70;1.00;;;;;;2613564;54;20150;-75
2023/07/19 15:56:10;;;;;;;10.43;9.83;;;19.90;1.00;;;;;;2613152;54;20134;-76
2023/07/19 16:01:58;;;;;;;9.70;9.20;;;19.70;1.00;;;;;;2610942;54;20423;-76
2023/07/19 16:07:46;;;;;;;8.90;8.47;;;19.40;1.00;;;;;;2610890;54;21028;-75
2023/07/19 16:13:34;;;;;;;9.80;9.00;;;20.00;1.00;;;;;;2608598;54;20383;-75
2023/07/19 16:19:22;;;;;;;10.87;10.27;;;20.40;1.00;;;;;;2605437;54;20390;-75
2023/07/19 16:25:10;;;;;;;12.70;11.90;;;20.40;1.00;;;;;;2613570;46;20711;-75
2023/07/19 16:37:43;;;;;;;11.40;10.60;;;22.20;1.00;;;;;;2614495;54;20503;-74
2023/07/19 16:43:31;;;;;;;12.87;11.97;;;22.60;1.00;;;;;;2614123;54;20387;-76
2023/07/19 16:49:18;;;;;;;11.20;10.60;;;20.80;1.00;;;;;;2612495;54;20123;-74
2023/07/19 16:55:10;;;;;;;10.60;10.00;;;20.60;1.00;;;;;;2613919;54;20134;-75
2023/07/19 17:00:58;;;;;;;12.07;10.83;;;20.30;1.00;;;;;;2614183;54;20395;-75
2023/07/19 17:06:45;;;;;;;10.90;10.30;;;20.50;1.00;;;;;;2614319;39;20570;-76
2023/07/19 17:12:33;;;;;;;10.90;10.30;;;20.00;1.00;;;;;;2614234;54;20741;-75
2023/07/19 17:18:23;;;;;;;12.37;11.53;;;20.10;1.00;;;;;;2613953;54;20130;-74
2023/07/19 17:24:11;;;;;;;12.67;11.80;;;20.00;1.00;;;;;;2612473;39;20893;-75
2023/07/19 17:29:59;;;;;;;13.37;12.53;;;20.10;1.00;;;;;;2613950;54;20950;-75
2023/07/19 17:35:47;;;;;;;14.90;13.80;;;20.20;1.00;;;;;;2613653;54;20148;-75
2023/07/19 17:41:35;;;;;;;10.63;9.93;;;20.10;1.00;;;;;;2613982;39;20478;-75
2023/07/19 17:47:23;;;;;;;11.43;10.63;;;20.10;1.00;;;;;;2612457;54;20175;-76
2023/07/19 17:53:10;;;;;;;11.67;10.73;;;19.90;1.00;;;;;;2612379;54;20193;-75
2023/07/19 17:58:58;;;;;;;11.33;10.63;;;19.90;1.00;;;;;;2613067;54;20122;-75
2023/07/19 18:04:46;;;;;;;11.87;9.20;;;20.00;1.00;;;;;;2613146;54;20135;-75
2023/07/19 18:10:37;;;;;;;9.00;8.20;;;19.60;1.00;;;;;;2613933;54;20134;-75
2023/07/19 18:16:24;;;;;;;9.67;8.77;;;19.40;1.00;;;;;;2613995;54;20414;-75
2023/07/19 18:22:12;;;;;;;11.30;10.20;;;19.40;1.00;;;;;;2609851;54;20693;-75
2023/07/19 18:28:00;;;;;;;11.40;10.20;;;19.50;1.00;;;;;;2613398;54;20434;-74
2023/07/19 18:30:51;;;;;;;13.07;11.00;;;19.40;1.00;;;;;;2612138;54;20938;-75
2023/07/19 18:33:17;;;;;;;9.77;8.87;;;19.40;1.00;;;;;;2612313;47;20158;-75
2023/07/19 18:39:05;;;;;;;9.33;8.53;;;19.50;1.00;;;;;;2612542;54;20166;-75
2023/07/19 18:44:53;;;;;;;7.97;7.27;;;19.60;1.00;;;;;;2611170;54;20739;-75
2023/07/19 18:50:42;;;;;;;6.20;5.70;;;19.60;1.00;;;;;;2613423;39;20622;-74
2023/07/19 18:56:30;;;;;;;6.80;6.20;;;19.60;1.00;;;;;;2613246;54;20460;-74
2023/07/19 19:02:18;;;;;;;6.73;6.13;;;19.60;1.00;;;;;;2607908;54;20148;-72
2023/07/19 19:08:06;;;;;;;6.60;5.97;;;19.50;1.00;;;;;;2611241;46;20169;-71
2023/07/19 19:13:53;;;;;;;7.47;6.97;;;19.50;1.00;;;;;;2606449;31;20637;-70
2023/07/19 19:19:41;;;;;;;10.37;7.23;;;19.40;1.00;;;;;;2609095;54;20140;-70
2023/07/19 19:25:29;;;;;;;7.57;6.63;;;19.40;1.00;;;;;;2609842;54;20122;-70
2023/07/19 19:35:26;;;;;;;8.00;6.80;;;19.20;1.00;;;;;;2611691;39;20791;-72
2023/07/19 19:41:14;;;;;;;8.53;7.20;;;19.10;1.00;;;;;;2609503;54;20459;-75
2023/07/19 19:47:02;;;;;;;9.40;8.60;;;19.20;1.00;;;;;;2612727;54;20400;-74
2023/07/19 19:52:50;;;;;;;8.87;8.20;;;19.00;1.00;;;;;;2613065;54;20396;-75
2023/07/19 19:58:38;;;;;;;9.53;8.00;;;18.80;1.00;;;;;;2612233;54;20199;-76
2023/07/19 20:04:26;;;;;;;9.63;8.63;;;18.60;1.00;;;;;;2611520;54;20134;-75
2023/07/19 20:10:13;;;;;;;9.07;8.47;;;18.60;1.00;;;;;;2614027;54;20695;-75
2023/07/19 20:16:03;;;;;;;10.23;9.33;;;18.50;1.00;;;;;;2613431;54;20130;-75
2023/07/19 20:21:50;;;;;;;9.97;9.07;;;18.40;1.00;;;;;;2612878;39;20474;-75
2023/07/19 20:27:38;;;;;;;9.03;8.30;;;18.10;1.00;;;;;;2613157;54;20162;-75
2023/07/19 20:33:38;;;;;;;7.80;7.30;;;17.90;1.00;;;;;;2610488;54;20150;-74
2023/07/19 20:39:25;;;;;;;8.33;7.40;;;17.80;1.00;;;;;;2611971;54;20820;-75
2023/07/19 20:45:13;;;;;;;8.27;7.67;;;17.60;1.00;;;;;;2612113;54;20134;-75
2023/07/19 20:51:00;;;;;;;7.60;6.80;;;17.70;1.00;;;;;;2613155;54;20169;-75
2023/07/19 20:56:47;;;;;;;7.73;7.00;;;17.60;1.00;;;;;;2613164;54;20531;-75
2023/07/19 21:02:35;;;;;;;8.90;8.10;;;17.60;1.00;;;;;;2612514;54;20134;-75
2023/07/19 21:08:22;;;;;;;8.53;7.73;;;17.50;1.00;;;;;;2610506;54;20153;-76
2023/07/19 21:14:10;;;;;;;9.07;8.27;;;17.50;1.00;;;;;;2611400;54;20983;-76
2023/07/19 21:19:57;;;;;;;8.57;7.97;;;17.50;1.00;;;;;;2611892;54;20134;-75
2023/07/19 21:25:45;;;;;;;9.00;8.30;;;17.50;1.00;;;;;;2613518;54;20130;-75
2023/07/19 21:35:23;;;;;;;8.50;7.90;;;17.40;1.00;;;;;;2613596;54;20436;-74
2023/07/19 21:41:11;;;;;;;10.70;8.83;;;17.50;1.00;;;;;;2612312;54;20430;-74
2023/07/19 21:46:59;;;;;;;9.67;8.77;;;17.50;1.00;;;;;;2612379;54;20122;-74
2023/07/19 21:52:46;;;;;;;9.57;8.73;;;17.40;1.00;;;;;;2613234;54;20134;-74
2023/07/19 21:58:34;;;;;;;9.07;8.47;;;17.50;1.00;;;;;;2611100;54;20173;-74
2023/07/19 22:04:22;;;;;;;9.03;8.10;;;17.50;1.00;;;;;;2609806;54;20135;-74
2023/07/19 22:10:11;;;;;;;9.10;8.27;;;17.50;1.00;;;;;;2610582;54;20866;-74
2023/07/19 22:15:59;;;;;;;8.50;7.77;;;17.50;1.00;;;;;;2609410;54;20982;-74
2023/07/19 22:21:47;;;;;;;7.87;7.27;;;17.50;1.00;;;;;;2613729;54;20131;-74
2023/07/19 22:27:35;;;;;;;7.70;7.20;;;17.30;1.00;;;;;;2612737;46;20430;-74
2023/07/19 22:33:40;;;;;;;8.43;7.63;;;17.30;1.00;;;;;;2608108;39;20584;-74
2023/07/19 22:39:27;;;;;;;8.80;7.43;;;17.00;1.00;;;;;;2609144;54;20946;-74
2023/07/19 22:45:15;;;;;;;9.07;8.17;;;16.90;1.00;;;;;;2608119;54;20134;-74
2023/07/19 22:51:03;;;;;;;8.17;7.47;;;16.80;1.00;;;;;;2607746;54;20435;-74
2023/07/19 22:56:50;;;;;;;10.43;7.80;;;16.90;1.00;;;;;;2609039;54;20383;-74
2023/07/19 23:02:37;;;;;;;9.57;8.60;;;16.90;1.00;;;;;;2608067;54;22161;-74
2023/07/19 23:08:25;;;;;;;8.23;7.17;;;16.80;1.00;;;;;;2608795;54;20712;-74
2023/07/19 23:14:12;;;;;;;8.93;8.10;;;16.80;1.00;;;;;;2609693;54;20134;-74
2023/07/19 23:20:00;;;;;;;9.37;7.47;;;16.60;1.00;;;;;;2610994;54;20133;-73
2023/07/19 23:25:51;;;;;;;8.13;7.40;;;16.60;1.00;;;;;;2608995;54;20399;-74
2023/07/19 23:35:23;;;;;;;8.10;7.40;;;16.70;1.00;;;;;;2609538;54;20428;-73
2023/07/19 23:41:11;;;;;;;8.00;7.30;;;16.80;1.00;;;;;;2608831;54;20987;-74
2023/07/19 23:46:59;;;;;;;8.53;7.73;;;16.70;1.00;;;;;;2609283;54;20135;-73
2023/07/19 23:52:46;;;;;;;11.43;8.57;;;16.80;1.00;;;;;;2611231;54;20173;-75
2023/07/19 23:58:34;;;;;;;9.10;8.40;;;16.80;1.00;;;;;;2610522;54;20130;-73
